Terminal Aerodrome Forecast
Issued by NWS

Home | Current Version | Previous Version | Graphics & Text | Print | Product List | Glossary On
Versions: 1 2 3 4 5 6 7 8 9 10 11 12 13 14 15 16 17 18 19
000
FTUS43 KGRB 221600 AAA
TAFAUW
TAF AMD
KAUW 221639Z 2217/2312 28005KT P6SM SCT017
      TEMPO 2217/2218 BKN017
     FM221900 23008KT P6SM SCT025
     FM230400 23011KT P6SM BKN200 WS015/25040KT=

USA.gov is the U.S. government's official web portal to all federal, state and local government web resources and services.